createdAt,value
2018-06-03T00:00:34.358Z,2.42
2018-06-03T00:06:29.348Z,2.63
2018-06-03T00:12:24.330Z,2.18
2018-06-03T00:18:19.293Z,2.9
2018-06-03T00:24:14.372Z,2.45
2018-06-03T00:30:09.297Z,2.59
2018-06-03T00:36:04.421Z,2.21
2018-06-03T00:41:59.323Z,2.27
2018-06-03T00:47:54.313Z,2.07
2018-06-03T00:53:49.295Z,2.36
2018-06-03T00:59:44.312Z,2.36
2018-06-03T01:05:39.380Z,2.66
2018-06-03T01:11:34.308Z,2.31
2018-06-03T01:17:29.303Z,2.28
2018-06-03T01:23:24.366Z,2.91
2018-06-03T01:29:19.332Z,2.62
2018-06-03T01:35:14.311Z,2.41
2018-06-03T01:41:09.329Z,2.6
2018-06-03T01:47:04.342Z,2.92
2018-06-03T01:52:59.297Z,2.73
2018-06-03T01:58:54.332Z,2.66
2018-06-03T02:04:49.348Z,2.82
2018-06-03T02:10:44.300Z,3.49
2018-06-03T02:16:39.302Z,2.92
2018-06-03T02:22:34.331Z,2.93
2018-06-03T02:28:29.327Z,2.95
2018-06-03T02:34:24.316Z,3.06
2018-06-03T02:40:19.342Z,3.16
2018-06-03T02:46:14.441Z,2.67
2018-06-03T02:52:09.359Z,2.75
2018-06-03T02:58:04.385Z,3.02
2018-06-03T03:03:59.359Z,2.9
2018-06-03T03:09:54.341Z,2.89
2018-06-03T03:15:49.334Z,3.25
2018-06-03T03:21:44.333Z,3.18
2018-06-03T03:27:39.352Z,3.41
2018-06-03T03:33:34.332Z,2.98
2018-06-03T03:39:29.426Z,3.03
2018-06-03T03:45:24.369Z,3.11
2018-06-03T03:51:19.337Z,2.86
2018-06-03T03:57:14.382Z,3.06
2018-06-03T04:03:09.331Z,3.24
2018-06-03T04:09:04.329Z,3.08
2018-06-03T04:14:59.387Z,3.07
2018-06-03T04:20:54.318Z,2.82
2018-06-03T04:26:49.329Z,2.68
2018-06-03T04:32:44.339Z,3.25
2018-06-03T04:38:39.342Z,3.5
2018-06-03T04:44:34.384Z,2.85
2018-06-03T04:50:29.412Z,3.33
2018-06-03T04:56:24.352Z,3.14
2018-06-03T05:02:19.352Z,3.36
2018-06-03T05:08:14.352Z,3.47
2018-06-03T05:14:09.357Z,3.48
2018-06-03T05:20:04.365Z,4.15
2018-06-03T05:25:59.367Z,4.46
2018-06-03T05:31:54.361Z,4.2
2018-06-03T05:37:49.353Z,8.99
2018-06-03T05:43:44.385Z,8.16
2018-06-03T05:49:39.407Z,6.82
2018-06-03T05:55:34.337Z,7.37
2018-06-03T06:01:29.344Z,6.93
2018-06-03T06:07:24.370Z,6.5
2018-06-03T06:13:19.346Z,5.64
2018-06-03T06:19:14.444Z,5.62
2018-06-03T06:25:09.394Z,6.69
2018-06-03T06:31:04.369Z,6.71
2018-06-03T06:36:59.376Z,7.4
2018-06-03T06:42:54.378Z,7.11
2018-06-03T06:48:49.395Z,6.48
2018-06-03T06:54:44.405Z,7.29
2018-06-03T07:00:39.378Z,6.96
2018-06-03T07:06:34.381Z,6.53
2018-06-03T07:12:29.399Z,6.83
2018-06-03T07:18:24.414Z,6.54
2018-06-03T07:24:19.381Z,5.77
2018-06-03T07:30:14.366Z,5.38
2018-06-03T07:36:09.394Z,6.47
2018-06-03T07:42:04.403Z,5.15
2018-06-03T07:47:59.395Z,5.53
2018-06-03T07:53:54.371Z,6.95
2018-06-03T07:59:49.467Z,6.46
2018-06-03T08:05:44.415Z,6.33
2018-06-03T08:11:39.366Z,5.4
2018-06-03T08:17:34.408Z,5.6
2018-06-03T08:23:29.450Z,5
2018-06-03T08:29:24.434Z,4.65
2018-06-03T08:35:19.362Z,5.67
2018-06-03T08:41:14.476Z,4.49
2018-06-03T08:47:09.396Z,4.51
2018-06-03T08:53:04.422Z,4.4
2018-06-03T08:58:59.415Z,4.06
2018-06-03T09:04:54.415Z,3.81
2018-06-03T09:10:49.387Z,4.64
2018-06-03T09:16:44.406Z,4.27
2018-06-03T09:22:39.462Z,3.54
2018-06-03T09:28:34.387Z,3.87
2018-06-03T09:34:29.439Z,3.63
2018-06-03T09:40:24.425Z,3.42
2018-06-03T09:46:19.407Z,2.94
2018-06-03T09:52:14.434Z,3.04
2018-06-03T09:58:09.413Z,3.21
2018-06-03T10:04:04.468Z,3.3
2018-06-03T10:09:59.453Z,2.98
2018-06-03T10:15:54.437Z,2.43
2018-06-03T10:21:49.481Z,2.73
2018-06-03T10:27:44.437Z,2.49
2018-06-03T10:33:39.481Z,2.32
2018-06-03T10:39:34.484Z,2.22
2018-06-03T10:45:29.470Z,2.57
2018-06-03T10:51:24.474Z,2.48
2018-06-03T10:57:19.470Z,2.35
2018-06-03T11:03:14.448Z,1.87
2018-06-03T11:09:09.458Z,2.23
2018-06-03T11:15:04.469Z,2.42
2018-06-03T11:20:59.476Z,1.86
2018-06-03T11:26:54.459Z,2.59
2018-06-03T11:32:49.482Z,1.57
2018-06-03T11:38:44.465Z,1.53
2018-06-03T11:44:39.487Z,1.32
2018-06-03T11:50:34.537Z,1.18
2018-06-03T11:56:29.464Z,1.25
2018-06-03T12:02:24.667Z,1.13
2018-06-03T12:08:19.478Z,1.26
2018-06-03T12:14:14.463Z,1.91
2018-06-03T12:20:09.513Z,1.74
2018-06-03T12:26:04.532Z,1.78
2018-06-03T12:31:59.489Z,2.12
2018-06-03T12:37:54.560Z,2.18
2018-06-03T12:43:49.545Z,2.16
2018-06-03T12:49:44.516Z,1.87
2018-06-03T12:55:39.489Z,2.77
2018-06-03T13:01:34.498Z,2.25
2018-06-03T13:07:29.483Z,2.22
2018-06-03T13:13:24.522Z,1.99
2018-06-03T13:19:19.649Z,2.4
2018-06-03T13:25:14.544Z,1.77
2018-06-03T13:31:09.508Z,2.18
2018-06-03T13:37:04.525Z,1.89
2018-06-03T13:42:59.529Z,1.53
2018-06-03T13:48:54.567Z,1.74
2018-06-03T13:54:49.541Z,2.05
2018-06-03T14:00:44.527Z,1.73
2018-06-03T14:06:39.587Z,2.31
2018-06-03T14:12:34.542Z,2.11
2018-06-03T14:18:29.529Z,1.82
2018-06-03T14:24:24.581Z,1.8
2018-06-03T14:30:19.551Z,2
2018-06-03T14:36:14.533Z,1.67
2018-06-03T14:42:09.547Z,2.01
2018-06-03T14:48:04.565Z,2.12
2018-06-03T14:53:59.555Z,2.07
2018-06-03T14:59:54.474Z,2.3
2018-06-03T15:05:49.495Z,2.23
2018-06-03T15:11:44.495Z,2.25
2018-06-03T15:17:39.540Z,2.22
2018-06-03T15:23:34.562Z,2.2
2018-06-03T15:29:29.591Z,2.07
2018-06-03T15:35:24.614Z,1.91
2018-06-03T15:41:19.553Z,2.7
2018-06-03T15:47:14.617Z,2.28
2018-06-03T15:53:09.585Z,2.27
2018-06-03T15:59:04.570Z,2.06
2018-06-03T16:04:59.652Z,2.56
2018-06-03T16:10:54.600Z,2.07
2018-06-03T16:16:49.631Z,2.04
2018-06-03T16:22:44.630Z,1.84
2018-06-03T16:28:39.615Z,1.93
2018-06-03T16:34:34.629Z,1.85
2018-06-03T16:40:29.697Z,2.76
2018-06-03T16:46:24.624Z,2.36
2018-06-03T16:52:19.605Z,2.12
2018-06-03T16:58:14.608Z,3
2018-06-03T17:04:09.590Z,2.65
2018-06-03T17:10:04.736Z,2.38
2018-06-03T17:15:59.618Z,2.56
2018-06-03T17:21:54.710Z,2.33
2018-06-03T17:27:49.615Z,2.73
2018-06-03T17:33:44.596Z,2.65
2018-06-03T17:39:39.665Z,2.16
2018-06-03T17:45:34.644Z,2.78
2018-06-03T17:51:29.637Z,2.45
2018-06-03T17:57:24.620Z,2.31
2018-06-03T18:03:19.643Z,2.11
2018-06-03T18:09:14.614Z,2.97
2018-06-03T18:15:09.637Z,3
2018-06-03T18:21:04.642Z,2.46
2018-06-03T18:26:59.666Z,3.08
2018-06-03T18:32:54.680Z,2.73
2018-06-03T18:38:49.658Z,2.7
2018-06-03T18:44:44.686Z,3.19
2018-06-03T18:50:39.645Z,2.62
2018-06-03T18:56:34.721Z,3.06
2018-06-03T19:02:29.634Z,3
2018-06-03T19:08:24.671Z,2.8
2018-06-03T19:14:19.669Z,3.15
2018-06-03T19:20:14.646Z,3.06
2018-06-03T19:26:09.669Z,3.37
2018-06-03T19:32:04.727Z,5.2
2018-06-03T19:37:59.679Z,4.86
2018-06-03T19:43:54.711Z,5.89
2018-06-03T19:49:49.692Z,13.1
2018-06-03T19:55:44.675Z,8.78
2018-06-03T20:01:39.706Z,7.42
2018-06-03T20:07:34.697Z,5.4
2018-06-03T20:13:29.686Z,4.34
2018-06-03T20:19:24.693Z,3.38
2018-06-03T20:25:19.707Z,3.52
2018-06-03T20:31:14.756Z,3.01
2018-06-03T20:37:09.699Z,3.5
2018-06-03T20:43:04.736Z,3.25
2018-06-03T20:48:59.735Z,3.32
2018-06-03T20:54:54.680Z,3.46
2018-06-03T21:00:49.693Z,3.19
2018-06-03T21:06:44.695Z,3.76
2018-06-03T21:12:39.682Z,3.61
2018-06-03T21:18:34.683Z,3.24
2018-06-03T21:24:29.708Z,3.29
2018-06-03T21:30:24.706Z,3.51
2018-06-03T21:36:19.742Z,2.86
2018-06-03T21:42:14.723Z,3.03
2018-06-03T21:48:09.698Z,3.01
2018-06-03T21:54:04.703Z,3.21
2018-06-03T21:59:59.733Z,3.11
2018-06-03T22:05:54.790Z,3.25
2018-06-03T22:11:49.733Z,3.61
2018-06-03T22:17:44.708Z,3.76
2018-06-03T22:23:39.751Z,3.15
2018-06-03T22:29:34.695Z,3.45
2018-06-03T22:35:29.784Z,3.14
2018-06-03T22:41:24.705Z,3.14
2018-06-03T22:47:19.704Z,3.15
2018-06-03T22:53:14.733Z,3.75
2018-06-03T22:59:09.737Z,3.37
2018-06-03T23:05:04.720Z,3.5
2018-06-03T23:10:59.739Z,3.23
2018-06-03T23:16:54.807Z,3.22
2018-06-03T23:22:49.764Z,3.07
2018-06-03T23:28:44.763Z,2.67
2018-06-03T23:34:39.788Z,3.2
2018-06-03T23:40:34.749Z,3.01
2018-06-03T23:46:29.790Z,3.17
2018-06-03T23:52:24.832Z,3.04
2018-06-03T23:58:19.749Z,2.73
